createdAt,value
2022-10-07T00:01:54.007Z,1019.6
2022-10-07T00:04:41.995Z,1019.6
2022-10-07T00:07:31.013Z,1019.5
2022-10-07T00:10:19.793Z,1019.5
2022-10-07T00:13:07.510Z,1019.5
2022-10-07T00:15:56.940Z,1019.5
2022-10-07T00:18:51.556Z,1019.5
2022-10-07T00:21:42.361Z,1019.5
2022-10-07T00:24:30.030Z,1019.5
2022-10-07T00:27:17.665Z,1019.5
2022-10-07T00:30:05.535Z,1019.5
2022-10-07T00:32:54.983Z,1019.4
2022-10-07T00:35:42.905Z,1019.5
2022-10-07T00:38:30.733Z,1019.6
2022-10-07T00:41:18.292Z,1019.6
2022-10-07T00:44:08.833Z,1019.5
2022-10-07T00:47:28.910Z,1019.5
2022-10-07T00:50:19.190Z,1019.5
2022-10-07T00:53:12.393Z,1019.5
2022-10-07T00:56:00.133Z,1019.4
2022-10-07T00:58:50.396Z,1019.5
2022-10-07T01:01:38.984Z,1019.4
2022-10-07T01:04:26.829Z,1019.4
2022-10-07T01:07:14.310Z,1019.4
2022-10-07T01:10:05.133Z,1019.4
2022-10-07T01:12:56.409Z,1019.3
2022-10-07T01:15:50.492Z,1019.3
2022-10-07T01:18:48.177Z,1019.3
2022-10-07T01:21:43.099Z,1019.2
2022-10-07T01:24:44.219Z,1019.2
2022-10-07T01:27:42.632Z,1019.1
2022-10-07T01:30:36.485Z,1019.2
2022-10-07T01:33:30.119Z,1019.2
2022-10-07T01:36:20.150Z,1019.1
2022-10-07T01:39:10.848Z,1019.1
2022-10-07T01:42:00.898Z,1019
2022-10-07T01:44:49.120Z,1019
2022-10-07T01:47:40.185Z,1019
2022-10-07T01:50:27.943Z,1018.9
2022-10-07T01:53:16.915Z,1018.9
2022-10-07T01:56:20.525Z,1019
2022-10-07T01:59:22.165Z,1018.9
2022-10-07T02:02:31.597Z,1019
2022-10-07T02:05:37.140Z,1018.9
2022-10-07T02:08:32.768Z,1018.8
2022-10-07T02:11:25.689Z,1018.8
2022-10-07T02:14:18.184Z,1018.9
2022-10-07T02:17:11.434Z,1018.9
2022-10-07T02:20:05.300Z,1018.9
2022-10-07T02:22:57.772Z,1018.9
2022-10-07T02:25:47.472Z,1018.8
2022-10-07T02:28:38.729Z,1018.8
2022-10-07T02:31:29.076Z,1018.9
2022-10-07T02:34:20.297Z,1018.8
2022-10-07T02:37:10.122Z,1018.7
2022-10-07T02:40:07.128Z,1018.8
2022-10-07T02:42:57.410Z,1018.7
2022-10-07T02:45:49.445Z,1018.8
2022-10-07T02:48:43.233Z,1018.7
2022-10-07T02:51:37.238Z,1018.8
2022-10-07T02:54:31.280Z,1018.7
2022-10-07T02:57:23.117Z,1018.7
2022-10-07T03:00:14.267Z,1018.7
2022-10-07T03:03:03.596Z,1018.7
2022-10-07T03:05:51.461Z,1018.7
2022-10-07T03:08:39.610Z,1018.7
2022-10-07T03:11:27.995Z,1018.7
2022-10-07T03:14:15.668Z,1018.6
2022-10-07T03:17:03.656Z,1018.6
2022-10-07T03:19:51.123Z,1018.6
2022-10-07T03:22:38.653Z,1018.5
2022-10-07T03:25:27.121Z,1018.6
2022-10-07T03:28:14.722Z,1018.6
2022-10-07T03:31:04.601Z,1018.6
2022-10-07T03:33:54.735Z,1018.5
2022-10-07T03:36:42.950Z,1018.5
2022-10-07T03:39:30.564Z,1018.5
2022-10-07T03:42:18.210Z,1018.5
2022-10-07T03:45:05.855Z,1018.5
2022-10-07T03:47:54.028Z,1018.4
2022-10-07T03:50:41.678Z,1018.5
2022-10-07T03:53:34.227Z,1018.5
2022-10-07T03:56:23.930Z,1018.4
2022-10-07T03:59:12.620Z,1018.3
2022-10-07T04:02:00.357Z,1018.4
2022-10-07T04:04:47.951Z,1018.4
2022-10-07T04:07:37.228Z,1018.3
2022-10-07T04:10:25.718Z,1018.3
2022-10-07T04:13:13.972Z,1018.3
2022-10-07T04:16:01.623Z,1018.2
2022-10-07T04:18:52.708Z,1018.2
2022-10-07T04:21:40.698Z,1018.2
2022-10-07T04:24:29.117Z,1018.2
2022-10-07T04:27:39.785Z,1018.2
2022-10-07T04:30:38.954Z,1018.2
2022-10-07T04:33:28.306Z,1018.2
2022-10-07T04:36:16.129Z,1018.2
2022-10-07T04:39:03.710Z,1018.1
2022-10-07T04:41:51.507Z,1018.1
2022-10-07T04:44:39.421Z,1018.1
2022-10-07T04:47:27.288Z,1018.1
2022-10-07T04:50:14.660Z,1018.1
2022-10-07T04:53:02.711Z,1018.2
2022-10-07T04:55:50.701Z,1018.2
2022-10-07T04:58:38.282Z,1018.2
2022-10-07T05:01:26.227Z,1018.1
2022-10-07T05:04:14.418Z,1018.1
2022-10-07T05:07:01.855Z,1018.1
2022-10-07T05:09:49.481Z,1018
2022-10-07T05:12:37.277Z,1018
2022-10-07T05:15:26.496Z,1018.1
2022-10-07T05:18:14.219Z,1018
2022-10-07T05:21:03.783Z,1018
2022-10-07T05:23:52.650Z,1017.9
2022-10-07T05:26:40.119Z,1018
2022-10-07T05:29:27.895Z,1018
2022-10-07T05:32:15.595Z,1018
2022-10-07T05:35:03.182Z,1018.1
2022-10-07T05:37:52.111Z,1018
2022-10-07T05:40:40.099Z,1018
2022-10-07T05:43:27.727Z,1018
2022-10-07T05:46:16.805Z,1018
2022-10-07T05:49:05.426Z,1018
2022-10-07T05:51:52.882Z,1018
2022-10-07T05:54:40.445Z,1018
2022-10-07T05:57:27.960Z,1018.1
2022-10-07T06:00:15.671Z,1018
2022-10-07T06:03:03.420Z,1018
2022-10-07T06:05:51.434Z,1018
2022-10-07T06:08:40.135Z,1017.9
2022-10-07T06:11:27.786Z,1018
2022-10-07T06:14:47.114Z,1018
2022-10-07T06:17:34.954Z,1017.9
2022-10-07T06:20:27.159Z,1017.9
2022-10-07T06:23:15.162Z,1017.9
2022-10-07T06:26:02.589Z,1017.9
2022-10-07T06:28:52.730Z,1017.9
2022-10-07T06:31:40.252Z,1017.9
2022-10-07T06:34:28.233Z,1017.9
2022-10-07T06:37:15.834Z,1017.9
2022-10-07T06:40:04.921Z,1017.8
2022-10-07T06:42:53.640Z,1017.9
2022-10-07T06:45:41.255Z,1017.9
2022-10-07T06:48:28.821Z,1017.9
2022-10-07T06:51:19.373Z,1017.9
2022-10-07T06:54:07.657Z,1017.9
2022-10-07T06:56:55.384Z,1017.8
2022-10-07T06:59:42.893Z,1017.8
2022-10-07T07:02:30.571Z,1017.8
2022-10-07T07:05:19.347Z,1017.8
2022-10-07T07:08:07.164Z,1017.8
2022-10-07T07:10:55.287Z,1017.8
2022-10-07T07:13:48.524Z,1017.8
2022-10-07T07:16:36.218Z,1017.7
2022-10-07T07:19:24.140Z,1017.8
2022-10-07T07:22:13.607Z,1017.7
2022-10-07T07:25:01.682Z,1017.6
2022-10-07T07:27:55.228Z,1017.7
2022-10-07T07:30:46.666Z,1017.7
2022-10-07T07:33:35.074Z,1017.6
2022-10-07T07:36:23.943Z,1017.7
2022-10-07T07:39:13.942Z,1017.6
2022-10-07T07:42:03.237Z,1017.6
2022-10-07T07:44:51.082Z,1017.6
2022-10-07T07:47:39.939Z,1017.6
2022-10-07T07:50:27.615Z,1017.6
2022-10-07T07:53:15.574Z,1017.6
2022-10-07T07:56:03.197Z,1017.6
2022-10-07T07:58:52.002Z,1017.5
2022-10-07T08:01:39.783Z,1017.5
2022-10-07T08:04:30.103Z,1017.5
2022-10-07T08:07:17.795Z,1017.5
2022-10-07T08:10:05.569Z,1017.5
2022-10-07T08:12:54.067Z,1017.5
2022-10-07T08:15:41.959Z,1017.4
2022-10-07T08:18:29.685Z,1017.4
2022-10-07T08:21:17.612Z,1017.3
2022-10-07T08:24:07.600Z,1017.4
2022-10-07T08:26:58.620Z,1017.3
2022-10-07T08:29:46.195Z,1017.2
2022-10-07T08:32:34.250Z,1017.2
2022-10-07T08:35:21.836Z,1017.2
2022-10-07T08:38:12.537Z,1017.2
2022-10-07T08:41:02.196Z,1017.2
2022-10-07T08:44:07.894Z,1017.1
2022-10-07T08:47:10.019Z,1017.1
2022-10-07T08:50:08.660Z,1017.1
2022-10-07T08:53:01.982Z,1017.1
2022-10-07T08:55:53.533Z,1017.1
2022-10-07T08:58:53.215Z,1017.1
2022-10-07T09:01:54.257Z,1016.9
2022-10-07T09:04:58.973Z,1017
2022-10-07T09:08:00.254Z,1017
2022-10-07T09:10:56.881Z,1017
2022-10-07T09:14:00.345Z,1016.9
2022-10-07T09:16:58.910Z,1016.8
2022-10-07T09:19:51.489Z,1016.7
2022-10-07T09:22:42.995Z,1016.7
2022-10-07T09:25:39.596Z,1016.7
2022-10-07T09:28:28.577Z,1016.7
2022-10-07T09:31:18.166Z,1016.7
2022-10-07T09:34:09.779Z,1016.7
2022-10-07T09:37:07.000Z,1016.5
2022-10-07T09:39:57.971Z,1016.5
2022-10-07T09:43:08.538Z,1016.5
2022-10-07T09:45:58.648Z,1016.4
2022-10-07T09:48:47.281Z,1016.4
2022-10-07T09:51:39.570Z,1016.3
2022-10-07T09:54:27.505Z,1016.4
2022-10-07T09:57:19.008Z,1016.3
2022-10-07T10:00:12.769Z,1016.2
2022-10-07T10:03:06.571Z,1016.2
2022-10-07T10:05:54.734Z,1016.2
2022-10-07T10:08:44.482Z,1016.1
2022-10-07T10:11:41.775Z,1016.1
2022-10-07T10:14:30.142Z,1016
2022-10-07T10:17:28.225Z,1016
2022-10-07T10:20:23.330Z,1015.9
2022-10-07T10:23:17.692Z,1015.8
2022-10-07T10:26:14.777Z,1015.8
2022-10-07T10:29:23.357Z,1015.8
2022-10-07T10:32:35.594Z,1015.7
2022-10-07T10:35:42.601Z,1015.7
2022-10-07T10:38:39.973Z,1015.7
2022-10-07T10:41:35.555Z,1015.6
2022-10-07T10:44:29.465Z,1015.7
2022-10-07T10:47:32.850Z,1015.6
2022-10-07T10:50:33.978Z,1015.5
2022-10-07T10:53:36.110Z,1015.5
2022-10-07T10:56:36.161Z,1015.5
2022-10-07T10:59:30.825Z,1015.3
2022-10-07T11:02:33.143Z,1015.3
2022-10-07T11:06:04.574Z,1015.1
2022-10-07T11:08:57.318Z,1015
2022-10-07T11:11:46.549Z,1015.1
2022-10-07T11:14:35.510Z,1015
2022-10-07T11:17:32.721Z,1015
2022-10-07T11:20:22.222Z,1014.9
2022-10-07T11:23:15.955Z,1014.9
2022-10-07T11:26:08.978Z,1014.7
2022-10-07T11:29:03.753Z,1014.8
2022-10-07T11:32:03.796Z,1014.6
2022-10-07T11:34:57.621Z,1014.6
2022-10-07T11:38:00.367Z,1014.5
2022-10-07T11:41:01.610Z,1014.5
2022-10-07T11:43:55.937Z,1014.3
2022-10-07T11:46:48.841Z,1014.2
2022-10-07T11:49:38.742Z,1014.2
2022-10-07T11:52:35.840Z,1014.1
2022-10-07T11:55:29.254Z,1014.1
2022-10-07T11:58:20.909Z,1014
2022-10-07T12:01:13.001Z,1014
2022-10-07T12:04:32.364Z,1013.8
2022-10-07T12:07:22.954Z,1013.7
2022-10-07T12:10:43.551Z,1013.8
2022-10-07T12:13:31.174Z,1013.6
2022-10-07T12:16:26.026Z,1013.5
2022-10-07T12:19:39.890Z,1013.5
2022-10-07T12:22:28.259Z,1013.4
2022-10-07T12:25:15.870Z,1013.5
2022-10-07T12:28:17.080Z,1013.4
2022-10-07T12:31:09.440Z,1013.4
2022-10-07T12:34:31.286Z,1013.3
2022-10-07T12:37:23.894Z,1013.2
2022-10-07T12:40:47.438Z,1013.3
2022-10-07T12:43:44.905Z,1013.1
2022-10-07T12:46:40.275Z,1013.1
2022-10-07T12:49:35.750Z,1013.1
2022-10-07T12:52:29.621Z,1013
2022-10-07T12:55:29.461Z,1012.9
2022-10-07T12:58:22.055Z,1012.9
2022-10-07T13:02:32.832Z,1012.9
2022-10-07T13:06:14.718Z,1012.9
2022-10-07T13:09:48.748Z,1012.7
2022-10-07T13:13:17.348Z,1012.8
2022-10-07T13:16:13.002Z,1012.7
2022-10-07T13:19:06.173Z,1012.6
2022-10-07T13:22:04.779Z,1012.6
2022-10-07T13:24:57.951Z,1012.7
2022-10-07T13:27:48.663Z,1012.6
2022-10-07T13:30:41.036Z,1012.5
2022-10-07T13:33:30.894Z,1012.5
2022-10-07T13:36:19.481Z,1012.3
2022-10-07T13:39:09.718Z,1012.3
2022-10-07T13:42:04.690Z,1012.3
2022-10-07T13:44:58.998Z,1012.2
2022-10-07T13:47:47.785Z,1012.2
2022-10-07T13:50:36.158Z,1012.1
2022-10-07T13:53:23.970Z,1012
2022-10-07T13:56:15.472Z,1012
2022-10-07T13:59:08.233Z,1012
2022-10-07T14:02:01.873Z,1012
2022-10-07T14:04:52.700Z,1011.9
2022-10-07T14:07:46.758Z,1011.8
2022-10-07T14:10:38.690Z,1011.6
2022-10-07T14:13:37.011Z,1011.6
2022-10-07T14:16:28.472Z,1011.7
2022-10-07T14:19:19.998Z,1011.6
2022-10-07T14:22:08.611Z,1011.6
2022-10-07T14:25:06.250Z,1011.5
2022-10-07T14:28:03.933Z,1011.5
2022-10-07T14:31:01.248Z,1011.4
2022-10-07T14:34:35.051Z,1011.4
2022-10-07T14:38:33.443Z,1011.2
2022-10-07T14:41:21.215Z,1011.3
2022-10-07T14:44:11.825Z,1011.2
2022-10-07T14:47:01.630Z,1011.2
2022-10-07T14:49:56.061Z,1011.1
2022-10-07T14:52:46.346Z,1011.1
2022-10-07T14:55:37.314Z,1011
2022-10-07T14:58:25.471Z,1011
2022-10-07T15:01:14.181Z,1011
2022-10-07T15:04:01.874Z,1011
2022-10-07T15:06:51.162Z,1010.9
2022-10-07T15:09:39.847Z,1010.8
2022-10-07T15:12:29.267Z,1010.9
2022-10-07T15:15:17.807Z,1010.8
2022-10-07T15:18:05.604Z,1010.8
2022-10-07T15:20:54.713Z,1010.7
2022-10-07T15:23:42.677Z,1010.7
2022-10-07T15:26:34.437Z,1010.8
2022-10-07T15:29:22.536Z,1010.7
2022-10-07T15:32:10.299Z,1010.6
2022-10-07T15:34:58.228Z,1010.6
2022-10-07T15:37:46.387Z,1010.7
2022-10-07T15:40:34.190Z,1010.7
2022-10-07T15:43:38.257Z,1010.6
2022-10-07T15:46:26.211Z,1010.5
2022-10-07T15:49:15.660Z,1010.6
2022-10-07T15:52:03.435Z,1010.6
2022-10-07T15:54:51.282Z,1010.5
2022-10-07T15:57:39.130Z,1010.6
2022-10-07T16:00:27.119Z,1010.5
2022-10-07T16:03:14.745Z,1010.5
2022-10-07T16:06:02.412Z,1010.6
2022-10-07T16:08:52.862Z,1010.6
2022-10-07T16:11:42.834Z,1010.6
2022-10-07T16:14:30.684Z,1010.5
2022-10-07T16:17:18.681Z,1010.5
2022-10-07T16:20:11.186Z,1010.5
2022-10-07T16:23:00.121Z,1010.5
2022-10-07T16:25:47.872Z,1010.5
2022-10-07T16:28:36.324Z,1010.5
2022-10-07T16:31:58.891Z,1010.4
2022-10-07T16:34:47.399Z,1010.4
2022-10-07T16:37:35.510Z,1010.4
2022-10-07T16:40:23.333Z,1010.4
2022-10-07T16:43:11.085Z,1010.4
2022-10-07T16:45:58.834Z,1010.4
2022-10-07T16:48:47.690Z,1010.4
2022-10-07T16:51:37.001Z,1010.4
2022-10-07T16:54:25.330Z,1010.3
2022-10-07T16:57:15.113Z,1010.3
2022-10-07T17:00:03.431Z,1010.3
2022-10-07T17:02:53.116Z,1010.2
2022-10-07T17:05:40.591Z,1010.3
2022-10-07T17:08:28.159Z,1010.2
2022-10-07T17:11:17.232Z,1010.3
2022-10-07T17:14:14.800Z,1010.2
2022-10-07T17:17:04.476Z,1010.1
2022-10-07T17:19:53.106Z,1010.2
2022-10-07T17:22:40.752Z,1010.1
2022-10-07T17:25:28.364Z,1010.1
2022-10-07T17:28:16.033Z,1010.2
2022-10-07T17:31:04.097Z,1010.1
2022-10-07T17:33:52.898Z,1010.1
2022-10-07T17:36:41.178Z,1010.1
2022-10-07T17:39:29.077Z,1010.1
2022-10-07T17:42:16.829Z,1010.1
2022-10-07T17:45:04.473Z,1010
2022-10-07T17:47:55.105Z,1010
2022-10-07T17:50:42.761Z,1010
2022-10-07T17:53:30.865Z,1010
2022-10-07T17:56:21.210Z,1009.9
2022-10-07T17:59:09.183Z,1009.9
2022-10-07T18:01:57.014Z,1009.9
2022-10-07T18:04:44.549Z,1009.9
2022-10-07T18:07:32.538Z,1009.8
2022-10-07T18:10:20.534Z,1009.8
2022-10-07T18:13:08.279Z,1009.8
2022-10-07T18:16:28.163Z,1009.7
2022-10-07T18:19:17.418Z,1009.7
2022-10-07T18:22:07.189Z,1009.8
2022-10-07T18:24:54.822Z,1009.7
2022-10-07T18:27:43.433Z,1009.7
2022-10-07T18:30:31.317Z,1009.6
2022-10-07T18:33:19.520Z,1009.5
2022-10-07T18:36:07.236Z,1009.6
2022-10-07T18:38:56.902Z,1009.5
2022-10-07T18:41:44.466Z,1009.5
2022-10-07T18:44:32.485Z,1009.4
2022-10-07T18:47:20.902Z,1009.4
2022-10-07T18:50:08.707Z,1009.4
2022-10-07T18:52:56.210Z,1009.4
2022-10-07T18:55:45.398Z,1009.3
2022-10-07T18:58:33.055Z,1009.3
2022-10-07T19:01:22.448Z,1009.3
2022-10-07T19:04:14.587Z,1009.2
2022-10-07T19:07:02.131Z,1009.2
2022-10-07T19:09:49.850Z,1009.1
2022-10-07T19:12:37.431Z,1009.2
2022-10-07T19:15:56.986Z,1009.1
2022-10-07T19:18:48.565Z,1009.1
2022-10-07T19:21:38.210Z,1009.1
2022-10-07T19:24:26.763Z,1009.1
2022-10-07T19:28:31.178Z,1009.1
2022-10-07T19:31:21.917Z,1009
2022-10-07T19:34:13.665Z,1009
2022-10-07T19:37:03.239Z,1009
2022-10-07T19:39:50.979Z,1009
2022-10-07T19:42:38.597Z,1009
2022-10-07T19:45:26.482Z,1008.9
2022-10-07T19:48:16.645Z,1008.9
2022-10-07T19:51:04.440Z,1008.9
2022-10-07T19:53:54.144Z,1009
2022-10-07T19:56:42.949Z,1008.9
2022-10-07T19:59:32.007Z,1008.9
2022-10-07T20:02:19.675Z,1008.9
2022-10-07T20:05:07.191Z,1008.8
2022-10-07T20:07:54.925Z,1008.8
2022-10-07T20:10:44.118Z,1008.7
2022-10-07T20:13:31.710Z,1008.8
2022-10-07T20:16:20.619Z,1008.8
2022-10-07T20:19:10.614Z,1008.8
2022-10-07T20:22:00.676Z,1008.8
2022-10-07T20:24:48.469Z,1008.8
2022-10-07T20:27:36.627Z,1008.8
2022-10-07T20:30:24.302Z,1008.7
2022-10-07T20:33:12.781Z,1008.8
2022-10-07T20:36:00.449Z,1008.6
2022-10-07T20:38:48.966Z,1008.6
2022-10-07T20:42:12.019Z,1008.7
2022-10-07T20:45:09.598Z,1008.7
2022-10-07T20:47:57.188Z,1008.7
2022-10-07T20:50:46.047Z,1008.6
2022-10-07T20:53:33.979Z,1008.5
2022-10-07T20:56:21.663Z,1008.5
2022-10-07T20:59:09.237Z,1008.5
2022-10-07T21:01:57.408Z,1008.6
2022-10-07T21:04:45.925Z,1008.6
2022-10-07T21:07:34.361Z,1008.5
2022-10-07T21:10:22.110Z,1008.5
2022-10-07T21:13:09.864Z,1008.5
2022-10-07T21:15:59.277Z,1008.4
2022-10-07T21:18:50.506Z,1008.4
2022-10-07T21:21:39.193Z,1008.4
2022-10-07T21:24:27.308Z,1008.4
2022-10-07T21:27:15.490Z,1008.3
2022-10-07T21:30:03.493Z,1008.3
2022-10-07T21:32:54.961Z,1008.2
2022-10-07T21:35:43.506Z,1008.2
2022-10-07T21:38:31.544Z,1008.2
2022-10-07T21:41:19.893Z,1008.2
2022-10-07T21:44:10.713Z,1008.2
2022-10-07T21:46:59.299Z,1008.2
2022-10-07T21:49:47.005Z,1008.2
2022-10-07T21:52:35.758Z,1008.1
2022-10-07T21:55:23.365Z,1008.1
2022-10-07T21:58:10.997Z,1008.1
2022-10-07T22:00:59.958Z,1008
2022-10-07T22:03:48.879Z,1008.1
2022-10-07T22:06:39.875Z,1008
2022-10-07T22:09:59.145Z,1008
2022-10-07T22:12:47.090Z,1008
2022-10-07T22:15:35.012Z,1008
2022-10-07T22:18:24.378Z,1008
2022-10-07T22:21:16.983Z,1008
2022-10-07T22:24:06.686Z,1007.9
2022-10-07T22:26:55.444Z,1007.9
2022-10-07T22:29:44.695Z,1007.9
2022-10-07T22:32:33.076Z,1007.9
2022-10-07T22:35:20.694Z,1007.8
2022-10-07T22:38:18.346Z,1007.8
2022-10-07T22:41:05.961Z,1007.7
2022-10-07T22:43:56.314Z,1007.6
2022-10-07T22:46:44.134Z,1007.6
2022-10-07T22:49:31.842Z,1007.6
2022-10-07T22:52:19.870Z,1007.6
2022-10-07T22:55:07.495Z,1007.4
2022-10-07T22:57:55.576Z,1007.5
2022-10-07T23:00:46.742Z,1007.5
2022-10-07T23:03:35.356Z,1007.5
2022-10-07T23:06:24.515Z,1007.4
2022-10-07T23:09:14.169Z,1007.4
2022-10-07T23:12:01.912Z,1007.4
2022-10-07T23:14:50.875Z,1007.4
2022-10-07T23:17:39.169Z,1007.5
2022-10-07T23:20:27.192Z,1007.4
2022-10-07T23:23:14.966Z,1007.4
2022-10-07T23:26:02.486Z,1007.4
2022-10-07T23:28:53.119Z,1007.3
2022-10-07T23:31:42.463Z,1007.3
2022-10-07T23:34:30.207Z,1007.3
2022-10-07T23:37:18.918Z,1007.2
2022-10-07T23:40:06.503Z,1007.3
2022-10-07T23:42:55.215Z,1007.2
2022-10-07T23:45:43.000Z,1007.2
2022-10-07T23:48:31.950Z,1007.1
2022-10-07T23:51:20.081Z,1007.1
2022-10-07T23:54:11.813Z,1007.1
2022-10-07T23:56:59.578Z,1007.1
2022-10-07T23:59:47.256Z,1007.1
